Time;durP1;ratioP1;P1;durP2;ratioP2;P2;SDS_P1;SDS_P2;PMS_P1;PMS_P2;Temp;Humidity;BMP_temperature;BMP_pressure;BME280_temperature;BME280_humidity;BME280_pressure;Samples;Min_cycle;Max_cycle;Signal;HPM_P1;HPM_P2
2021/12/31 00:00:55;;;;;;;0.50;0.50;;;12.00;99.90;;;;;;5062420;28;20056;-89
2021/12/31 00:03:20;;;;;;;1.67;0.82;;;12.00;99.90;;;;;;5053958;28;20044;-88
2021/12/31 00:05:51;;;;;;;0.60;0.60;;;12.00;99.90;;;;;;5056639;28;20051;-88
2021/12/31 00:08:17;;;;;;;0.50;0.50;;;12.10;99.90;;;;;;5059473;28;20076;-89
2021/12/31 00:10:44;;;;;;;8.50;2.58;;;12.00;99.90;;;;;;5060165;28;20064;-90
2021/12/31 00:13:10;;;;;;;0.50;0.50;;;12.10;99.90;;;;;;5057980;28;20037;-88
2021/12/31 00:15:35;;;;;;;1.75;1.63;;;12.00;99.90;;;;;;5042963;28;20051;-87
2021/12/31 00:18:01;;;;;;;0.50;0.50;;;12.00;99.90;;;;;;5036336;28;20496;-88
2021/12/31 00:20:27;;;;;;;0.60;0.60;;;12.00;99.90;;;;;;5042827;28;20049;-87
2021/12/31 00:25:19;;;;;;;0.70;0.70;;;11.90;99.90;;;;;;5062557;28;20702;-86
2021/12/31 00:27:45;;;;;;;2.88;1.85;;;11.80;99.90;;;;;;5053635;28;20041;-86
2021/12/31 00:30:11;;;;;;;0.50;0.50;;;11.90;99.90;;;;;;5062229;28;20041;-87
2021/12/31 00:32:37;;;;;;;0.50;0.50;;;12.00;99.90;;;;;;5037887;28;20103;-87
2021/12/31 00:35:04;;;;;;;0.60;0.50;;;11.80;99.90;;;;;;5044894;28;20045;-87
2021/12/31 00:37:32;;;;;;;3.85;0.60;;;11.80;99.90;;;;;;5043318;28;20049;-87
2021/12/31 00:39:58;;;;;;;0.95;0.75;;;11.90;99.90;;;;;;5061445;28;20037;-88
2021/12/31 00:42:23;;;;;;;0.75;0.75;;;11.80;99.90;;;;;;5037405;28;20047;-86
2021/12/31 00:44:49;;;;;;;0.40;0.40;;;11.80;99.90;;;;;;5053522;28;20041;-86
2021/12/31 00:47:15;;;;;;;1.33;1.23;;;11.80;99.90;;;;;;5044082;28;20045;-86
2021/12/31 00:49:42;;;;;;;1.65;1.02;;;11.80;99.90;;;;;;5043220;28;20078;-88
2021/12/31 00:52:08;;;;;;;1.10;1.10;;;11.80;99.90;;;;;;5060302;28;20084;-86
2021/12/31 00:54:34;;;;;;;0.60;0.60;;;11.80;99.90;;;;;;5041728;28;20049;-86
2021/12/31 00:57:03;;;;;;;4.07;1.88;;;11.70;99.90;;;;;;5059159;28;20075;-87
2021/12/31 00:59:33;;;;;;;0.80;0.80;;;11.80;99.90;;;;;;5042799;28;20037;-88
2021/12/31 01:02:03;;;;;;;7.72;2.85;;;11.80;99.90;;;;;;5042301;28;20041;-87
2021/12/31 01:04:29;;;;;;;1.00;0.85;;;11.70;99.90;;;;;;5054874;28;20049;-86
2021/12/31 01:06:55;;;;;;;0.60;0.60;;;11.80;99.90;;;;;;5060931;28;20060;-87
2021/12/31 01:09:21;;;;;;;1.17;1.08;;;11.70;99.90;;;;;;5060885;28;20394;-88
2021/12/31 01:11:48;;;;;;;0.70;0.70;;;11.70;99.90;;;;;;5058937;28;20033;-87
2021/12/31 01:14:26;;;;;;;0.50;0.50;;;11.70;99.90;;;;;;5042241;28;20037;-88
2021/12/31 01:16:57;;;;;;;0.50;0.50;;;11.70;99.90;;;;;;5056285;28;20120;-89
2021/12/31 01:21:51;;;;;;;1.42;1.23;;;11.60;99.90;;;;;;5054844;28;20053;-88
2021/12/31 01:24:18;;;;;;;0.60;0.60;;;11.60;99.90;;;;;;5037370;28;20076;-88
2021/12/31 01:26:44;;;;;;;0.50;0.50;;;11.70;99.90;;;;;;5039929;28;20132;-87
2021/12/31 01:29:10;;;;;;;2.15;1.30;;;11.70;99.90;;;;;;5060452;28;20465;-88
2021/12/31 01:31:35;;;;;;;0.65;0.65;;;11.70;99.90;;;;;;5059601;28;20127;-88
2021/12/31 01:34:01;;;;;;;0.47;0.47;;;11.70;99.90;;;;;;5036624;28;20045;-88
2021/12/31 01:36:27;;;;;;;0.60;0.60;;;11.70;99.90;;;;;;5034612;28;20045;-88
2021/12/31 01:38:53;;;;;;;1.02;1.02;;;11.70;99.90;;;;;;5044239;28;20131;-89
2021/12/31 01:41:21;;;;;;;0.50;0.50;;;11.70;99.90;;;;;;5069758;28;20131;-87
2021/12/31 01:43:47;;;;;;;1.13;1.00;;;11.70;99.90;;;;;;5054331;28;20044;-87
2021/12/31 01:46:13;;;;;;;1.95;1.58;;;11.70;99.90;;;;;;5046796;28;20037;-86
2021/12/31 01:51:34;;;;;;;0.60;0.60;;;11.60;99.90;;;;;;5044536;28;20045;-87
2021/12/31 01:54:00;;;;;;;0.50;0.50;;;11.70;99.90;;;;;;5039532;28;20072;-87
2021/12/31 01:56:31;;;;;;;0.50;0.50;;;11.60;99.90;;;;;;5043429;28;20029;-85
2021/12/31 01:58:57;;;;;;;0.50;0.50;;;11.70;99.90;;;;;;5057432;28;20127;-86
2021/12/31 02:01:23;;;;;;;1.23;1.13;;;11.70;99.90;;;;;;5055202;28;20041;-87
2021/12/31 02:03:51;;;;;;;0.50;0.50;;;11.70;99.90;;;;;;5036797;28;20044;-88
2021/12/31 02:06:16;;;;;;;1.08;1.08;;;11.80;99.90;;;;;;5040966;28;20366;-86
2021/12/31 02:08:42;;;;;;;0.50;0.50;;;11.80;99.90;;;;;;5050333;28;20101;-85
2021/12/31 02:11:08;;;;;;;0.60;0.60;;;11.70;99.90;;;;;;5035271;28;20044;-87
2021/12/31 02:13:36;;;;;;;0.40;0.40;;;11.70;99.90;;;;;;5058725;28;20108;-87
2021/12/31 02:16:03;;;;;;;0.60;0.60;;;11.70;99.90;;;;;;5040993;28;20061;-83
2021/12/31 02:18:30;;;;;;;0.75;0.75;;;11.70;99.90;;;;;;5059938;28;20056;-88
2021/12/31 02:20:56;;;;;;;0.50;0.50;;;11.70;99.90;;;;;;5043269;28;20041;-87
2021/12/31 02:23:26;;;;;;;0.50;0.50;;;11.70;99.90;;;;;;5039931;28;20098;-88
2021/12/31 02:25:53;;;;;;;3.83;1.58;;;11.60;99.90;;;;;;5046251;28;20045;-87
2021/12/31 02:28:19;;;;;;;0.50;0.50;;;11.70;99.90;;;;;;5056322;28;20071;-88
2021/12/31 02:30:45;;;;;;;0.85;0.85;;;11.70;99.90;;;;;;5076343;28;20493;-86
2021/12/31 02:33:11;;;;;;;0.50;0.50;;;11.70;99.90;;;;;;5041894;28;20052;-87
2021/12/31 02:35:38;;;;;;;0.50;0.50;;;11.70;99.90;;;;;;5060531;28;20032;-89
2021/12/31 02:38:05;;;;;;;1.20;0.65;;;11.80;99.90;;;;;;5043499;28;20495;-87
2021/12/31 02:40:32;;;;;;;0.50;0.50;;;11.80;99.90;;;;;;5039239;28;20045;-86
2021/12/31 02:42:58;;;;;;;0.95;0.77;;;11.80;99.90;;;;;;5068445;28;20033;-87
2021/12/31 02:45:30;;;;;;;0.47;0.47;;;11.90;99.90;;;;;;5052350;28;20506;-86
2021/12/31 02:47:57;;;;;;;1.17;1.05;;;11.90;99.90;;;;;;5034039;28;20044;-88
2021/12/31 02:50:33;;;;;;;0.50;0.50;;;12.00;99.90;;;;;;5038877;28;20041;-87
2021/12/31 02:52:59;;;;;;;0.60;0.60;;;12.00;99.90;;;;;;5036633;28;20493;-87
2021/12/31 02:55:30;;;;;;;0.98;0.88;;;11.90;99.90;;;;;;5057972;28;20045;-85
2021/12/31 02:57:57;;;;;;;0.52;0.52;;;11.90;99.90;;;;;;5048006;28;20044;-88
2021/12/31 03:00:22;;;;;;;0.82;0.52;;;12.00;99.90;;;;;;5041613;28;20122;-89
2021/12/31 03:02:49;;;;;;;0.70;0.70;;;12.10;99.90;;;;;;5049253;28;20041;-86
2021/12/31 03:05:16;;;;;;;0.60;0.60;;;12.00;99.90;;;;;;5031794;28;20061;-87
2021/12/31 03:07:45;;;;;;;0.95;0.95;;;12.10;99.90;;;;;;5052350;28;20045;-88
2021/12/31 03:10:11;;;;;;;0.50;0.50;;;12.00;99.90;;;;;;5044152;28;20055;-88
2021/12/31 03:12:39;;;;;;;0.77;0.77;;;12.10;99.90;;;;;;5029943;28;20060;-87
2021/12/31 03:15:05;;;;;;;0.60;0.60;;;12.10;99.90;;;;;;5059100;28;20210;-87
2021/12/31 03:17:32;;;;;;;0.50;0.50;;;12.10;99.90;;;;;;5041374;28;20115;-86
2021/12/31 03:20:09;;;;;;;0.52;0.52;;;12.10;99.90;;;;;;5041772;28;20044;-87
2021/12/31 03:22:35;;;;;;;1.58;1.48;;;12.10;99.90;;;;;;5050056;28;20113;-88
2021/12/31 03:25:01;;;;;;;0.82;0.82;;;12.10;99.90;;;;;;5047633;28;20040;-87
2021/12/31 03:27:26;;;;;;;0.60;0.60;;;12.10;99.90;;;;;;5064699;28;20041;-89
2021/12/31 03:29:52;;;;;;;1.50;0.93;;;12.10;99.90;;;;;;5048469;28;20050;-88
2021/12/31 03:32:17;;;;;;;0.52;0.52;;;12.10;99.90;;;;;;5063896;28;20036;-87
2021/12/31 03:34:43;;;;;;;0.60;0.60;;;12.20;99.90;;;;;;5062897;28;20041;-86
2021/12/31 03:37:08;;;;;;;0.85;0.85;;;12.30;99.90;;;;;;5052673;28;20083;-88
2021/12/31 03:39:34;;;;;;;0.47;0.47;;;12.20;99.90;;;;;;5039437;28;20431;-86
2021/12/31 03:41:59;;;;;;;0.40;0.40;;;12.20;99.90;;;;;;5042531;28;20045;-88
2021/12/31 03:44:25;;;;;;;0.50;0.50;;;12.20;99.90;;;;;;5041762;28;20037;-89
2021/12/31 03:46:51;;;;;;;0.65;0.65;;;12.20;99.90;;;;;;5067566;28;20045;-89
2021/12/31 03:49:16;;;;;;;0.70;0.70;;;12.30;99.90;;;;;;5059947;28;20079;-88
2021/12/31 03:51:42;;;;;;;0.50;0.50;;;12.20;99.90;;;;;;5077035;28;20041;-88
2021/12/31 03:54:07;;;;;;;0.80;0.80;;;12.10;99.90;;;;;;5043331;28;20191;-89
2021/12/31 03:56:33;;;;;;;0.77;0.77;;;12.10;99.90;;;;;;5059278;28;20041;-89
2021/12/31 03:58:59;;;;;;;0.50;0.50;;;12.10;99.90;;;;;;5050234;28;20412;-88
2021/12/31 04:01:26;;;;;;;1.60;1.48;;;12.10;99.90;;;;;;5042624;28;20079;-88
2021/12/31 04:03:52;;;;;;;0.82;0.73;;;12.10;99.90;;;;;;5042885;28;20033;-87
2021/12/31 04:06:18;;;;;;;0.50;0.50;;;12.10;99.90;;;;;;5053230;28;20182;-87
2021/12/31 04:08:43;;;;;;;0.60;0.60;;;12.10;99.90;;;;;;5063086;28;20057;-89
2021/12/31 04:11:11;;;;;;;0.50;0.50;;;12.20;99.90;;;;;;5058061;28;20082;-86
2021/12/31 04:13:37;;;;;;;0.55;0.55;;;12.10;99.90;;;;;;5068727;28;20080;-86
2021/12/31 04:16:03;;;;;;;0.70;0.70;;;12.20;99.90;;;;;;5062320;28;20060;-89
2021/12/31 04:18:28;;;;;;;0.57;0.57;;;12.10;99.90;;;;;;5055824;28;20149;-89
2021/12/31 04:20:56;;;;;;;0.60;0.60;;;12.20;99.90;;;;;;5076227;28;20146;-87
2021/12/31 04:23:28;;;;;;;0.50;0.50;;;12.10;99.90;;;;;;5052016;28;20069;-89
2021/12/31 04:25:55;;;;;;;1.63;1.23;;;12.20;99.90;;;;;;5042831;28;20543;-88
2021/12/31 04:28:21;;;;;;;0.50;0.50;;;12.10;99.90;;;;;;5063617;28;20090;-89
2021/12/31 04:30:46;;;;;;;0.50;0.50;;;12.10;99.90;;;;;;5062785;28;20049;-87
2021/12/31 04:33:12;;;;;;;0.52;0.52;;;12.20;99.90;;;;;;5046429;28;20045;-87
2021/12/31 04:35:38;;;;;;;0.55;0.55;;;12.20;99.90;;;;;;5068591;28;20044;-88
2021/12/31 04:38:03;;;;;;;0.70;0.70;;;12.10;99.90;;;;;;5046140;28;20811;-88
2021/12/31 04:40:29;;;;;;;1.55;1.45;;;12.20;99.90;;;;;;5056347;28;20095;-88
2021/12/31 04:42:54;;;;;;;0.85;0.85;;;12.20;99.90;;;;;;5047955;28;20048;-87
2021/12/31 04:45:20;;;;;;;0.50;0.50;;;12.20;99.90;;;;;;5050048;28;20040;-87
2021/12/31 04:47:46;;;;;;;0.50;0.50;;;12.30;99.90;;;;;;5048922;28;20088;-90
2021/12/31 04:50:11;;;;;;;0.70;0.70;;;12.30;99.90;;;;;;5045906;28;20037;-88
2021/12/31 04:52:38;;;;;;;0.50;0.50;;;12.40;99.90;;;;;;5047757;28;20041;-88
2021/12/31 04:55:04;;;;;;;1.00;1.00;;;12.40;99.90;;;;;;5046380;28;20037;-88
2021/12/31 04:57:30;;;;;;;2.92;1.40;;;12.40;99.90;;;;;;5045687;28;20048;-86
2021/12/31 04:59:55;;;;;;;0.50;0.50;;;12.30;99.90;;;;;;5061117;28;20045;-87
2021/12/31 05:02:21;;;;;;;0.80;0.80;;;12.40;99.90;;;;;;5042463;28;20136;-88
2021/12/31 05:04:47;;;;;;;0.50;0.50;;;12.30;99.90;;;;;;5042262;28;20037;-88
2021/12/31 05:07:12;;;;;;;1.65;1.10;;;12.30;99.90;;;;;;5049869;28;20114;-88
2021/12/31 05:09:38;;;;;;;0.50;0.50;;;12.30;99.90;;;;;;5045933;28;20044;-88
2021/12/31 05:12:05;;;;;;;0.50;0.50;;;12.30;99.90;;;;;;5044949;28;20083;-85
2021/12/31 05:14:31;;;;;;;0.50;0.50;;;12.30;99.90;;;;;;5051581;28;20061;-87
2021/12/31 05:16:58;;;;;;;0.50;0.50;;;12.20;99.90;;;;;;5044469;28;20184;-87
2021/12/31 05:19:24;;;;;;;1.88;1.15;;;12.10;99.90;;;;;;5061105;28;20187;-87
2021/12/31 05:21:50;;;;;;;0.60;0.60;;;12.00;99.90;;;;;;5045471;28;20072;-85
2021/12/31 05:24:16;;;;;;;0.40;0.40;;;12.00;99.90;;;;;;5062689;28;20036;-88
2021/12/31 05:26:42;;;;;;;0.60;0.55;;;11.90;99.90;;;;;;5061791;28;20037;-87
2021/12/31 05:29:08;;;;;;;9.43;0.70;;;11.90;99.90;;;;;;5053843;28;20057;-87
2021/12/31 05:31:34;;;;;;;0.40;0.40;;;12.00;99.90;;;;;;5044518;28;20045;-88
2021/12/31 05:33:59;;;;;;;0.50;0.50;;;11.90;99.90;;;;;;5067142;28;20094;-85
2021/12/31 05:36:25;;;;;;;0.57;0.57;;;11.90;99.90;;;;;;5061622;28;20095;-88
2021/12/31 05:38:50;;;;;;;0.45;0.45;;;11.90;99.90;;;;;;5044418;28;20128;-88
2021/12/31 05:41:16;;;;;;;0.60;0.60;;;11.80;99.90;;;;;;5077492;28;20032;-88
2021/12/31 05:43:41;;;;;;;7.03;1.05;;;11.90;99.90;;;;;;5061845;28;20051;-89
2021/12/31 05:46:07;;;;;;;0.50;0.50;;;12.00;99.90;;;;;;5036054;28;20069;-89
2021/12/31 05:48:34;;;;;;;0.50;0.50;;;12.00;99.90;;;;;;5043753;28;20136;-87
2021/12/31 05:50:59;;;;;;;0.40;0.40;;;12.00;99.90;;;;;;5060454;28;20068;-88
2021/12/31 05:53:25;;;;;;;0.77;0.77;;;12.00;99.90;;;;;;5061875;28;20063;-88
2021/12/31 05:55:51;;;;;;;0.50;0.50;;;12.00;99.90;;;;;;5044163;28;20068;-88
2021/12/31 05:58:17;;;;;;;0.60;0.60;;;12.00;99.90;;;;;;5051796;28;20066;-89
2021/12/31 06:00:43;;;;;;;0.50;0.50;;;12.00;99.90;;;;;;5050056;28;20116;-90
2021/12/31 06:03:08;;;;;;;0.60;0.60;;;12.10;99.90;;;;;;5039280;28;20048;-90
2021/12/31 06:05:36;;;;;;;0.82;0.82;;;12.10;99.90;;;;;;5029769;28;20037;-88
2021/12/31 06:08:01;;;;;;;0.70;0.70;;;12.10;99.90;;;;;;5036774;28;20049;-88
2021/12/31 06:10:27;;;;;;;1.63;1.40;;;12.20;99.90;;;;;;5042844;28;20049;-87
2021/12/31 06:12:57;;;;;;;0.50;0.50;;;12.30;99.90;;;;;;5044371;28;20045;-89
2021/12/31 06:15:23;;;;;;;0.75;0.65;;;12.30;99.90;;;;;;5058579;28;20041;-86
2021/12/31 06:17:50;;;;;;;2.47;1.00;;;12.30;99.90;;;;;;5059647;28;20051;-89
2021/12/31 06:20:15;;;;;;;2.63;1.27;;;12.30;99.90;;;;;;5043207;28;20065;-89
2021/12/31 06:22:41;;;;;;;1.38;1.35;;;12.30;99.90;;;;;;5043897;28;20044;-86
2021/12/31 06:25:07;;;;;;;1.67;1.58;;;12.40;99.90;;;;;;5039432;28;20088;-88
2021/12/31 06:27:33;;;;;;;0.77;0.77;;;12.30;99.90;;;;;;5054342;28;20101;-89
2021/12/31 06:29:59;;;;;;;0.50;0.50;;;12.30;99.90;;;;;;5032840;28;20044;-89
2021/12/31 06:32:24;;;;;;;0.70;0.55;;;12.30;99.90;;;;;;5056808;28;20413;-89
2021/12/31 06:34:50;;;;;;;0.50;0.50;;;12.30;99.90;;;;;;5041719;28;20376;-88
2021/12/31 06:37:15;;;;;;;0.57;0.57;;;12.30;99.90;;;;;;5051403;28;20037;-90
2021/12/31 06:39:42;;;;;;;0.75;0.75;;;12.20;99.90;;;;;;5060826;28;20045;-89
2021/12/31 06:42:09;;;;;;;0.98;0.98;;;12.30;99.90;;;;;;5043013;28;20029;-88
2021/12/31 06:44:36;;;;;;;0.50;0.50;;;12.20;99.90;;;;;;5061114;28;20049;-88
2021/12/31 06:47:03;;;;;;;0.40;0.40;;;12.20;99.90;;;;;;5056558;28;20041;-85
2021/12/31 06:49:29;;;;;;;0.60;0.60;;;12.10;99.90;;;;;;5047779;28;20100;-88
2021/12/31 06:51:54;;;;;;;0.50;0.50;;;12.20;99.90;;;;;;5043303;28;20099;-89
2021/12/31 06:54:20;;;;;;;0.60;0.60;;;12.10;99.90;;;;;;5040932;28;20037;-88
2021/12/31 06:56:45;;;;;;;0.80;0.80;;;12.10;99.90;;;;;;5043788;28;20044;-89
2021/12/31 06:59:11;;;;;;;0.60;0.60;;;12.10;99.90;;;;;;5046841;28;20116;-87
2021/12/31 07:01:37;;;;;;;0.50;0.50;;;12.20;99.90;;;;;;5059296;28;20097;-88
2021/12/31 07:04:02;;;;;;;1.05;1.02;;;12.10;99.90;;;;;;5052711;28;20048;-88
2021/12/31 07:06:28;;;;;;;0.70;0.70;;;12.10;99.90;;;;;;5063244;28;20040;-88
2021/12/31 07:08:54;;;;;;;0.40;0.40;;;12.10;99.90;;;;;;5051140;28;20178;-87
2021/12/31 07:11:23;;;;;;;0.47;0.47;;;12.10;99.90;;;;;;5058090;28;20124;-88
2021/12/31 07:13:52;;;;;;;0.70;0.70;;;12.10;99.90;;;;;;5046914;28;20494;-89
2021/12/31 07:16:18;;;;;;;0.50;0.50;;;12.10;99.90;;;;;;5071993;28;20037;-88
2021/12/31 07:18:43;;;;;;;0.70;0.70;;;12.20;99.90;;;;;;5035500;28;20049;-88
2021/12/31 07:21:09;;;;;;;0.60;0.60;;;12.20;99.90;;;;;;5035265;28;20037;-89
2021/12/31 07:23:35;;;;;;;0.50;0.50;;;12.10;99.90;;;;;;5061954;28;20052;-89
2021/12/31 07:26:01;;;;;;;0.70;0.70;;;12.10;99.90;;;;;;5044816;28;20061;-88
2021/12/31 07:28:28;;;;;;;0.85;0.80;;;12.10;99.90;;;;;;5059777;28;20052;-88
2021/12/31 07:30:54;;;;;;;0.57;0.57;;;12.10;99.90;;;;;;5041569;28;20094;-86
2021/12/31 07:33:22;;;;;;;0.60;0.60;;;12.00;99.90;;;;;;5042639;28;20052;-88
2021/12/31 07:35:50;;;;;;;0.50;0.50;;;12.00;99.90;;;;;;5060313;28;20056;-87
2021/12/31 07:38:21;;;;;;;0.50;0.50;;;12.00;99.90;;;;;;5043646;28;20045;-90
2021/12/31 07:40:51;;;;;;;0.60;0.60;;;12.00;99.90;;;;;;5043535;28;20041;-88
2021/12/31 07:43:18;;;;;;;0.60;0.60;;;12.00;99.90;;;;;;5047923;28;20049;-89
2021/12/31 07:45:44;;;;;;;0.50;0.50;;;11.90;99.90;;;;;;5060054;28;20351;-88
2021/12/31 07:48:10;;;;;;;2.72;0.75;;;11.90;99.90;;;;;;5046616;28;20044;-89
2021/12/31 07:50:36;;;;;;;0.50;0.50;;;11.80;99.90;;;;;;5047891;28;20102;-89
2021/12/31 07:53:04;;;;;;;0.60;0.60;;;11.80;99.90;;;;;;5045121;28;20041;-89
2021/12/31 07:55:30;;;;;;;0.50;0.50;;;11.80;99.90;;;;;;5047518;28;20531;-88
2021/12/31 07:57:56;;;;;;;0.52;0.52;;;11.90;99.90;;;;;;5046969;28;20037;-88
2021/12/31 08:00:21;;;;;;;0.50;0.50;;;11.90;99.90;;;;;;5043785;28;20103;-86
2021/12/31 08:02:47;;;;;;;0.50;0.50;;;12.00;99.90;;;;;;5060332;28;20041;-89
2021/12/31 08:05:12;;;;;;;0.63;0.63;;;12.00;99.90;;;;;;5047573;28;20037;-87
2021/12/31 08:07:38;;;;;;;0.60;0.60;;;12.10;99.90;;;;;;5046430;28;20029;-85
2021/12/31 08:10:04;;;;;;;0.70;0.70;;;12.10;99.90;;;;;;5059232;28;20053;-85
2021/12/31 08:12:32;;;;;;;0.55;0.55;;;12.10;99.90;;;;;;5061048;28;20037;-83
2021/12/31 08:14:58;;;;;;;0.93;0.88;;;12.10;99.90;;;;;;5037993;28;20056;-85
2021/12/31 08:17:23;;;;;;;0.45;0.45;;;12.10;99.90;;;;;;5043542;28;20049;-85
2021/12/31 08:19:49;;;;;;;0.40;0.40;;;12.00;99.90;;;;;;5046219;28;20033;-87
2021/12/31 08:22:14;;;;;;;1.10;1.02;;;12.00;99.90;;;;;;5061822;28;20116;-86
2021/12/31 08:24:40;;;;;;;1.90;1.75;;;12.00;99.90;;;;;;5045619;28;20068;-86
2021/12/31 08:27:06;;;;;;;0.60;0.60;;;12.00;99.90;;;;;;5056096;28;20041;-85
2021/12/31 08:29:31;;;;;;;0.50;0.50;;;12.00;99.90;;;;;;5059643;28;20053;-88
2021/12/31 08:31:57;;;;;;;0.60;0.60;;;12.00;99.90;;;;;;5051215;28;20045;-88
2021/12/31 08:34:22;;;;;;;0.50;0.50;;;12.10;99.90;;;;;;5035402;28;20086;-89
2021/12/31 08:36:48;;;;;;;0.57;0.57;;;12.10;99.90;;;;;;5041779;28;20108;-89
2021/12/31 08:39:13;;;;;;;0.70;0.70;;;12.10;99.90;;;;;;5045050;28;20110;-87
2021/12/31 08:41:40;;;;;;;0.50;0.50;;;12.10;99.90;;;;;;5061884;28;20056;-88
2021/12/31 08:44:07;;;;;;;0.50;0.50;;;12.20;99.90;;;;;;5043876;28;20091;-89
2021/12/31 08:46:33;;;;;;;0.77;0.77;;;12.20;99.90;;;;;;5053566;28;20048;-87
2021/12/31 08:48:59;;;;;;;0.50;0.50;;;12.30;99.90;;;;;;5057649;28;20041;-90
2021/12/31 08:51:25;;;;;;;0.50;0.50;;;12.40;99.90;;;;;;5057110;28;20577;-88
2021/12/31 08:53:52;;;;;;;0.50;0.50;;;12.40;99.90;;;;;;5044869;28;20059;-88
2021/12/31 08:56:18;;;;;;;0.50;0.50;;;12.40;99.90;;;;;;5054749;28;20051;-88
2021/12/31 08:58:43;;;;;;;0.50;0.50;;;12.30;99.90;;;;;;5043212;28;20163;-88
2021/12/31 09:01:09;;;;;;;1.38;0.80;;;12.30;99.90;;;;;;5039637;28;20037;-85
2021/12/31 09:03:35;;;;;;;0.60;0.60;;;12.40;99.90;;;;;;5061504;28;20216;-86
2021/12/31 09:06:00;;;;;;;1.15;0.73;;;12.30;99.90;;;;;;5044184;28;20048;-87
2021/12/31 09:08:26;;;;;;;0.50;0.50;;;12.30;99.90;;;;;;5045062;28;20540;-88
2021/12/31 09:10:51;;;;;;;0.50;0.50;;;12.30;99.90;;;;;;5044114;28;20037;-88
2021/12/31 09:13:17;;;;;;;0.50;0.50;;;12.30;99.90;;;;;;5056098;28;20043;-88
2021/12/31 09:15:42;;;;;;;0.55;0.55;;;12.30;99.90;;;;;;5040268;28;20102;-87
2021/12/31 09:18:08;;;;;;;1.23;1.23;;;12.30;99.90;;;;;;5043151;28;20044;-88
2021/12/31 09:20:34;;;;;;;0.50;0.50;;;12.30;99.90;;;;;;5048476;28;20048;-88
2021/12/31 09:23:00;;;;;;;2.85;2.42;;;12.30;99.90;;;;;;5032232;28;20048;-87
2021/12/31 09:25:26;;;;;;;0.60;0.60;;;12.20;99.90;;;;;;5061808;28;20052;-89
2021/12/31 09:27:52;;;;;;;0.50;0.50;;;12.20;99.90;;;;;;5039367;28;20041;-87
2021/12/31 09:30:17;;;;;;;0.60;0.60;;;12.20;99.90;;;;;;5077627;28;20520;-88
2021/12/31 09:32:43;;;;;;;0.43;0.43;;;12.30;99.90;;;;;;5039204;28;20041;-87
2021/12/31 09:35:09;;;;;;;6.45;0.70;;;12.30;99.90;;;;;;5045257;28;20037;-88
2021/12/31 09:37:35;;;;;;;0.60;0.60;;;12.30;99.90;;;;;;5062875;28;20036;-87
2021/12/31 09:40:00;;;;;;;0.60;0.60;;;12.30;99.90;;;;;;5070416;28;20053;-87
2021/12/31 09:42:26;;;;;;;0.60;0.60;;;12.40;99.90;;;;;;5050795;28;20059;-85
2021/12/31 09:44:52;;;;;;;0.52;0.52;;;12.40;99.90;;;;;;5044518;28;20052;-88
2021/12/31 09:47:19;;;;;;;0.60;0.60;;;12.30;99.90;;;;;;5050710;28;20072;-88
2021/12/31 09:49:46;;;;;;;0.70;0.70;;;12.30;99.90;;;;;;5044100;28;20049;-86
2021/12/31 09:52:14;;;;;;;0.50;0.50;;;12.30;99.90;;;;;;5044717;28;20045;-87
2021/12/31 09:54:45;;;;;;;0.70;0.70;;;12.20;99.90;;;;;;5055132;28;20041;-85
2021/12/31 09:57:12;;;;;;;0.50;0.50;;;12.20;99.90;;;;;;5043672;28;20113;-89
2021/12/31 09:59:40;;;;;;;0.52;0.52;;;12.20;99.90;;;;;;5060332;28;20736;-89
2021/12/31 10:02:06;;;;;;;3.13;0.95;;;12.20;99.90;;;;;;5056462;28;20092;-87
2021/12/31 10:04:52;;;;;;;3.10;0.80;;;12.20;99.90;;;;;;5043326;28;20044;-87
2021/12/31 10:07:21;;;;;;;0.50;0.50;;;12.20;99.90;;;;;;5040434;28;20053;-86
2021/12/31 10:10:07;;;;;;;0.60;0.60;;;12.20;99.90;;;;;;5034053;28;20041;-88
2021/12/31 10:12:51;;;;;;;0.60;0.60;;;12.10;99.90;;;;;;5049350;28;20052;-87
2021/12/31 10:15:19;;;;;;;0.50;0.50;;;12.20;99.90;;;;;;5044598;28;20083;-87
2021/12/31 10:17:45;;;;;;;0.70;0.70;;;12.10;99.90;;;;;;5052925;28;20052;-87
2021/12/31 10:20:11;;;;;;;0.40;0.40;;;12.10;99.90;;;;;;5044145;28;20041;-89
2021/12/31 10:22:36;;;;;;;0.50;0.50;;;12.00;99.90;;;;;;5040534;28;20071;-89
2021/12/31 10:25:19;;;;;;;0.77;0.77;;;12.00;99.90;;;;;;5041640;28;20396;-88
2021/12/31 10:27:44;;;;;;;1.23;1.13;;;12.00;99.90;;;;;;5039514;28;20089;-88
2021/12/31 10:30:10;;;;;;;0.50;0.50;;;12.00;99.90;;;;;;5034495;28;20055;-89
2021/12/31 10:32:40;;;;;;;0.68;0.68;;;11.90;99.90;;;;;;5039347;28;20029;-89
2021/12/31 10:35:13;;;;;;;1.10;1.00;;;11.90;99.90;;;;;;5051447;28;20060;-89
2021/12/31 10:37:46;;;;;;;0.50;0.50;;;11.90;99.90;;;;;;5042447;28;20071;-89
2021/12/31 10:40:24;;;;;;;0.60;0.60;;;11.90;99.90;;;;;;5044513;28;20422;-90
2021/12/31 10:43:04;;;;;;;0.77;0.70;;;11.90;99.90;;;;;;5052273;28;20045;-90
2021/12/31 10:45:30;;;;;;;0.50;0.50;;;12.00;99.90;;;;;;5049977;28;20060;-89
2021/12/31 10:48:12;;;;;;;0.50;0.50;;;11.80;99.90;;;;;;5043360;28;20127;-90
2021/12/31 10:50:51;;;;;;;1.23;1.13;;;11.80;99.90;;;;;;5034118;28;20037;-90
2021/12/31 10:53:32;;;;;;;0.50;0.50;;;11.80;99.90;;;;;;5042819;28;20060;-88
2021/12/31 10:56:06;;;;;;;0.82;0.82;;;11.80;99.90;;;;;;5056075;28;20041;-88
2021/12/31 10:58:32;;;;;;;0.63;0.63;;;11.80;99.90;;;;;;5049784;28;20162;-90
2021/12/31 11:00:59;;;;;;;0.50;0.50;;;11.70;99.90;;;;;;5039984;28;20129;-90
2021/12/31 11:03:25;;;;;;;0.50;0.50;;;11.70;99.90;;;;;;5053779;28;20041;-89
2021/12/31 11:05:53;;;;;;;0.60;0.60;;;11.70;99.90;;;;;;5041425;28;20068;-92
2021/12/31 11:08:19;;;;;;;0.73;0.73;;;11.80;99.90;;;;;;5042325;28;20029;-89
2021/12/31 11:10:45;;;;;;;0.52;0.52;;;11.80;99.90;;;;;;5048049;28;20473;-87
2021/12/31 11:13:18;;;;;;;0.50;0.50;;;11.70;99.90;;;;;;5035542;28;20666;-89
2021/12/31 11:15:47;;;;;;;1.48;0.80;;;11.70;99.90;;;;;;5037870;28;20060;-89
2021/12/31 11:18:18;;;;;;;0.75;0.75;;;11.70;99.90;;;;;;5036790;28;20045;-87
2021/12/31 11:20:46;;;;;;;0.60;0.60;;;11.70;99.90;;;;;;5039691;28;20052;-88
2021/12/31 11:23:11;;;;;;;0.52;0.52;;;11.70;99.90;;;;;;5041067;28;20092;-89
2021/12/31 11:25:53;;;;;;;1.25;1.23;;;11.70;99.90;;;;;;5074976;28;20084;-88
2021/12/31 11:28:31;;;;;;;0.50;0.50;;;11.70;99.90;;;;;;5058338;28;20044;-89
2021/12/31 11:31:22;;;;;;;0.40;0.40;;;11.70;99.90;;;;;;5056888;28;20048;-85
2021/12/31 11:34:01;;;;;;;0.65;0.65;;;11.70;99.90;;;;;;5072093;28;20481;-89
2021/12/31 11:36:54;;;;;;;0.60;0.60;;;11.60;99.90;;;;;;5057474;28;20044;-87
2021/12/31 11:39:36;;;;;;;0.60;0.60;;;11.70;99.90;;;;;;5052707;28;20106;-86
2021/12/31 11:42:11;;;;;;;0.50;0.50;;;11.70;99.90;;;;;;5046550;28;20287;-87
2021/12/31 11:45:04;;;;;;;0.57;0.57;;;11.80;99.90;;;;;;5044319;28;20056;-88
2021/12/31 11:47:31;;;;;;;0.63;0.63;;;11.60;99.90;;;;;;5038379;28;20120;-88
2021/12/31 11:50:24;;;;;;;0.60;0.60;;;11.60;99.90;;;;;;5058617;28;20044;-88
2021/12/31 11:53:01;;;;;;;0.73;0.73;;;11.60;99.90;;;;;;5074152;28;20107;-88
2021/12/31 11:55:27;;;;;;;0.50;0.50;;;11.50;99.90;;;;;;5071189;28;20045;-89
2021/12/31 11:57:53;;;;;;;0.80;0.60;;;11.50;99.90;;;;;;5039013;28;20124;-89
2021/12/31 12:00:26;;;;;;;0.50;0.50;;;11.50;99.90;;;;;;5039032;28;20060;-87
2021/12/31 12:02:52;;;;;;;3.13;1.40;;;11.40;99.90;;;;;;5039615;28;20473;-87
2021/12/31 12:05:20;;;;;;;0.60;0.60;;;11.50;99.90;;;;;;5056446;28;20056;-87
2021/12/31 12:07:52;;;;;;;0.50;0.50;;;11.50;99.90;;;;;;5039973;28;20033;-89
2021/12/31 12:10:27;;;;;;;2.13;1.60;;;11.40;99.90;;;;;;5040659;28;20040;-88
2021/12/31 12:12:56;;;;;;;0.45;0.45;;;11.40;99.90;;;;;;5038653;28;20133;-87
2021/12/31 12:15:24;;;;;;;0.70;0.70;;;11.30;99.90;;;;;;5040988;28;20045;-87
2021/12/31 12:17:53;;;;;;;0.40;0.40;;;11.40;99.90;;;;;;5047194;28;20036;-88
2021/12/31 12:20:30;;;;;;;0.70;0.70;;;11.40;99.90;;;;;;5055358;28;20091;-87
2021/12/31 12:22:56;;;;;;;0.80;0.80;;;11.40;99.90;;;;;;5052727;28;20057;-86
2021/12/31 12:25:23;;;;;;;0.60;0.60;;;11.30;99.90;;;;;;5040318;28;20057;-85
2021/12/31 12:27:56;;;;;;;0.50;0.50;;;11.40;99.90;;;;;;5051075;28;20045;-86
2021/12/31 12:30:23;;;;;;;0.50;0.50;;;11.30;99.90;;;;;;5058954;28;20072;-87
2021/12/31 12:35:26;;;;;;;0.60;0.60;;;11.30;99.90;;;;;;5051293;28;20393;-86
2021/12/31 12:38:01;;;;;;;0.52;0.52;;;11.30;99.90;;;;;;5073324;28;20043;-86
2021/12/31 12:40:37;;;;;;;1.75;1.40;;;11.30;99.90;;;;;;5038774;28;20053;-88
2021/12/31 12:43:05;;;;;;;1.33;1.23;;;11.40;99.90;;;;;;5075094;28;20041;-86
2021/12/31 12:45:30;;;;;;;0.50;0.50;;;11.40;99.90;;;;;;5042669;28;20045;-87
2021/12/31 12:47:56;;;;;;;0.50;0.50;;;11.50;99.90;;;;;;5054841;28;20044;-85
2021/12/31 12:50:22;;;;;;;0.50;0.50;;;11.40;99.90;;;;;;5076148;28;20119;-87
2021/12/31 12:52:55;;;;;;;0.60;0.60;;;11.50;99.90;;;;;;5042093;28;20037;-86
2021/12/31 12:55:22;;;;;;;0.57;0.57;;;11.50;99.90;;;;;;5043168;28;20098;-87
2021/12/31 12:58:01;;;;;;;0.90;0.90;;;11.50;99.90;;;;;;5040908;28;20079;-88
2021/12/31 13:00:34;;;;;;;0.50;0.50;;;11.40;99.90;;;;;;5072514;28;20049;-88